createdAt,value
2023-06-03T00:00:06.975Z,25.60
2023-06-03T00:01:07.213Z,25.60
2023-06-03T00:02:07.060Z,25.60
2023-06-03T00:03:07.146Z,25.61
2023-06-03T00:04:07.298Z,25.58
2023-06-03T00:05:07.122Z,25.61
2023-06-03T00:06:07.148Z,25.61
2023-06-03T00:07:07.152Z,25.61
2023-06-03T00:08:07.178Z,25.60
2023-06-03T00:09:07.168Z,25.56
2023-06-03T00:10:07.245Z,25.58
2023-06-03T00:11:07.667Z,25.58
2023-06-03T00:12:07.403Z,25.57
2023-06-03T00:13:07.479Z,25.58
2023-06-03T00:14:07.545Z,25.58
2023-06-03T00:15:07.627Z,25.58
2023-06-03T00:16:07.774Z,25.57
2023-06-03T00:17:07.806Z,25.58
2023-06-03T00:18:07.934Z,25.58
2023-06-03T00:19:07.969Z,25.58
2023-06-03T00:20:08.445Z,25.58
2023-06-03T00:21:08.208Z,25.58
2023-06-03T00:22:08.249Z,25.57
2023-06-03T00:23:08.314Z,25.58
2023-06-03T00:24:08.393Z,25.57
2023-06-03T00:25:08.589Z,25.56
2023-06-03T00:26:08.560Z,25.54
2023-06-03T00:27:08.659Z,25.54
2023-06-03T00:28:08.738Z,25.54
2023-06-03T00:29:08.810Z,25.56
2023-06-03T00:30:08.907Z,25.56
2023-06-03T00:31:08.977Z,25.54
2023-06-03T00:32:09.103Z,25.53
2023-06-03T00:33:09.201Z,25.56
2023-06-03T00:34:09.288Z,25.53
2023-06-03T00:35:09.328Z,25.53
2023-06-03T00:36:09.402Z,25.54
2023-06-03T00:37:09.499Z,25.50
2023-06-03T00:38:09.573Z,25.53
2023-06-03T00:39:09.663Z,25.53
2023-06-03T00:40:09.741Z,25.51
2023-06-03T00:41:09.917Z,25.53
2023-06-03T00:42:09.921Z,25.51
2023-06-03T00:43:10.036Z,25.51
2023-06-03T00:44:10.124Z,25.48
2023-06-03T00:45:10.214Z,25.51
2023-06-03T00:46:10.314Z,25.51
2023-06-03T00:47:10.402Z,25.51
2023-06-03T00:48:10.489Z,25.51
2023-06-03T00:49:10.559Z,25.51
2023-06-03T00:50:10.631Z,25.50
2023-06-03T00:51:10.714Z,25.51
2023-06-03T00:52:10.795Z,25.53
2023-06-03T00:53:10.898Z,25.53
2023-06-03T00:54:10.965Z,25.48
2023-06-03T00:55:11.036Z,25.51
2023-06-03T00:56:11.142Z,25.50
2023-06-03T00:57:11.290Z,25.50
2023-06-03T00:58:11.294Z,25.50
2023-06-03T00:59:11.368Z,25.48
2023-06-03T01:00:11.466Z,25.50
2023-06-03T01:01:11.565Z,25.50
2023-06-03T01:02:11.658Z,25.50
2023-06-03T01:03:11.778Z,25.47
2023-06-03T01:04:11.811Z,25.50
2023-06-03T01:05:11.911Z,25.48
2023-06-03T01:06:12.004Z,25.48
2023-06-03T01:07:12.073Z,25.47
2023-06-03T01:08:12.150Z,25.50
2023-06-03T01:09:12.258Z,25.46
2023-06-03T01:10:12.340Z,25.46
2023-06-03T01:11:12.423Z,25.44
2023-06-03T01:12:12.492Z,25.44
2023-06-03T01:13:12.592Z,25.46
2023-06-03T01:14:12.672Z,25.44
2023-06-03T01:15:12.737Z,25.46
2023-06-03T01:16:12.837Z,25.43
2023-06-03T01:17:12.920Z,25.44
2023-06-03T01:18:12.998Z,25.44
2023-06-03T01:19:13.066Z,25.43
2023-06-03T01:20:13.146Z,25.43
2023-06-03T01:21:13.235Z,25.43
2023-06-03T01:22:13.307Z,25.43
2023-06-03T01:23:13.381Z,25.44
2023-06-03T01:24:13.417Z,25.43
2023-06-03T01:25:13.540Z,25.43
2023-06-03T01:26:13.583Z,25.41
2023-06-03T01:27:13.705Z,25.41
2023-06-03T01:28:13.758Z,25.44
2023-06-03T01:29:13.854Z,25.44
2023-06-03T01:30:13.939Z,25.41
2023-06-03T01:31:14.046Z,25.43
2023-06-03T01:32:14.129Z,25.41
2023-06-03T01:33:14.190Z,25.44
2023-06-03T01:34:14.274Z,25.41
2023-06-03T01:35:14.377Z,25.41
2023-06-03T01:36:14.437Z,25.41
2023-06-03T01:37:14.521Z,25.41
2023-06-03T01:38:14.607Z,25.43
2023-06-03T01:39:14.699Z,25.43
2023-06-03T01:40:14.796Z,25.37
2023-06-03T01:41:14.885Z,25.39
2023-06-03T01:42:14.966Z,25.37
2023-06-03T01:43:15.033Z,25.37
2023-06-03T01:44:15.120Z,25.40
2023-06-03T01:45:15.202Z,25.41
2023-06-03T01:46:15.321Z,25.39
2023-06-03T01:47:15.433Z,25.39
2023-06-03T01:48:15.478Z,25.36
2023-06-03T01:49:15.565Z,25.36
2023-06-03T01:50:15.643Z,25.40
2023-06-03T01:51:15.750Z,25.39
2023-06-03T01:52:15.823Z,25.39
2023-06-03T01:53:15.983Z,25.39
2023-06-03T01:54:16.023Z,25.39
2023-06-03T01:55:16.090Z,25.41
2023-06-03T01:56:16.175Z,25.40
2023-06-03T01:57:16.278Z,25.40
2023-06-03T01:58:16.348Z,25.40
2023-06-03T01:59:16.418Z,25.39
2023-06-03T02:00:16.521Z,25.37
2023-06-03T02:01:16.686Z,25.39
2023-06-03T02:02:16.709Z,25.39
2023-06-03T02:03:16.827Z,25.39
2023-06-03T02:04:16.856Z,25.39
2023-06-03T02:05:16.941Z,25.39
2023-06-03T02:06:17.005Z,25.40
2023-06-03T02:07:17.115Z,25.37
2023-06-03T02:08:17.209Z,25.37
2023-06-03T02:09:17.312Z,25.37
2023-06-03T02:10:17.391Z,25.37
2023-06-03T02:11:17.457Z,25.39
2023-06-03T02:12:17.481Z,25.39
2023-06-03T02:13:17.508Z,25.37
2023-06-03T02:14:17.527Z,25.37
2023-06-03T02:15:17.536Z,25.36
2023-06-03T02:16:17.555Z,25.37
2023-06-03T02:17:17.568Z,25.39
2023-06-03T02:18:17.587Z,25.36
2023-06-03T02:19:17.680Z,25.36
2023-06-03T02:20:17.638Z,25.37
2023-06-03T02:21:17.696Z,25.34
2023-06-03T02:22:17.762Z,25.34
2023-06-03T02:23:17.882Z,25.33
2023-06-03T02:24:18.794Z,25.34
2023-06-03T02:25:17.980Z,25.34
2023-06-03T02:26:18.035Z,25.34
2023-06-03T02:27:18.131Z,25.33
2023-06-03T02:28:18.228Z,25.33
2023-06-03T02:29:18.306Z,25.33
2023-06-03T02:30:18.344Z,25.33
2023-06-03T02:31:18.373Z,25.32
2023-06-03T02:32:18.378Z,25.33
2023-06-03T02:33:18.391Z,25.36
2023-06-03T02:34:18.404Z,25.34
2023-06-03T02:35:18.418Z,25.33
2023-06-03T02:36:18.448Z,25.34
2023-06-03T02:37:18.509Z,25.30
2023-06-03T02:38:18.485Z,25.33
2023-06-03T02:39:18.568Z,25.34
2023-06-03T02:40:18.658Z,25.32
2023-06-03T02:41:18.733Z,25.34
2023-06-03T02:42:18.813Z,25.32
2023-06-03T02:43:18.884Z,25.33
2023-06-03T02:44:18.940Z,25.33
2023-06-03T02:45:19.014Z,25.32
2023-06-03T02:46:19.158Z,25.34
2023-06-03T02:47:19.197Z,25.33
2023-06-03T02:48:19.275Z,25.32
2023-06-03T02:49:19.368Z,25.33
2023-06-03T02:50:19.538Z,25.32
2023-06-03T02:51:19.607Z,25.30
2023-06-03T02:52:19.704Z,25.30
2023-06-03T02:53:19.753Z,25.30
2023-06-03T02:54:19.813Z,25.33
2023-06-03T02:55:19.880Z,25.32
2023-06-03T02:56:19.931Z,25.33
2023-06-03T02:57:19.998Z,25.33
2023-06-03T02:58:20.034Z,25.33
2023-06-03T02:59:20.091Z,25.30
2023-06-03T03:00:20.150Z,25.30
2023-06-03T03:01:20.267Z,25.32
2023-06-03T03:02:20.321Z,25.33
2023-06-03T03:03:20.419Z,25.32
2023-06-03T03:04:20.393Z,25.33
2023-06-03T03:05:20.442Z,25.33
2023-06-03T03:06:20.476Z,25.34
2023-06-03T03:07:20.542Z,25.29
2023-06-03T03:08:20.610Z,25.30
2023-06-03T03:09:20.687Z,25.30
2023-06-03T03:10:20.754Z,25.29
2023-06-03T03:11:20.814Z,25.30
2023-06-03T03:12:20.898Z,25.30
2023-06-03T03:13:20.989Z,25.30
2023-06-03T03:14:21.022Z,25.30
2023-06-03T03:15:21.070Z,25.29
2023-06-03T03:16:21.164Z,25.30
2023-06-03T03:17:21.195Z,25.28
2023-06-03T03:18:21.263Z,25.28
2023-06-03T03:19:21.316Z,25.29
2023-06-03T03:20:21.388Z,25.28
2023-06-03T03:21:21.461Z,25.28
2023-06-03T03:22:21.550Z,25.30
2023-06-03T03:23:21.605Z,25.26
2023-06-03T03:24:21.683Z,25.28
2023-06-03T03:25:21.778Z,25.28
2023-06-03T03:26:21.796Z,25.29
2023-06-03T03:27:21.873Z,25.29
2023-06-03T03:28:21.945Z,25.30
2023-06-03T03:29:22.009Z,25.30
2023-06-03T03:30:22.078Z,25.30
2023-06-03T03:31:22.199Z,25.28
2023-06-03T03:32:22.270Z,25.25
2023-06-03T03:33:22.297Z,25.29
2023-06-03T03:34:22.403Z,25.28
2023-06-03T03:35:22.468Z,25.29
2023-06-03T03:36:22.565Z,25.28
2023-06-03T03:37:22.644Z,25.28
2023-06-03T03:38:22.729Z,25.29
2023-06-03T03:39:22.800Z,25.25
2023-06-03T03:40:22.885Z,25.26
2023-06-03T03:41:22.942Z,25.29
2023-06-03T03:42:23.064Z,25.26
2023-06-03T03:43:23.097Z,25.28
2023-06-03T03:44:23.198Z,25.26
2023-06-03T03:45:23.290Z,25.25
2023-06-03T03:46:23.451Z,25.25
2023-06-03T03:47:23.564Z,25.26
2023-06-03T03:48:23.542Z,25.29
2023-06-03T03:49:23.621Z,25.23
2023-06-03T03:50:23.721Z,25.26
2023-06-03T03:51:23.791Z,25.23
2023-06-03T03:52:26.006Z,25.26
2023-06-03T03:53:23.895Z,25.22
2023-06-03T03:54:23.953Z,25.23
2023-06-03T03:55:23.930Z,25.26
2023-06-03T03:56:23.955Z,25.23
2023-06-03T03:57:23.976Z,25.26
2023-06-03T03:58:24.011Z,25.23
2023-06-03T03:59:24.044Z,25.26
2023-06-03T04:00:24.077Z,25.25
2023-06-03T04:01:24.085Z,25.25
2023-06-03T04:02:24.186Z,25.23
2023-06-03T04:03:24.166Z,25.29
2023-06-03T04:04:24.146Z,25.26
2023-06-03T04:05:24.173Z,25.26
2023-06-03T04:06:24.188Z,25.25
2023-06-03T04:07:24.353Z,25.28
2023-06-03T04:08:24.260Z,25.26
2023-06-03T04:09:24.252Z,25.28
2023-06-03T04:10:24.298Z,25.26
2023-06-03T04:11:24.296Z,25.26
2023-06-03T04:12:24.400Z,25.25
2023-06-03T04:13:24.357Z,25.26
2023-06-03T04:14:24.371Z,25.20
2023-06-03T04:15:24.413Z,25.26
2023-06-03T04:16:24.513Z,25.25
2023-06-03T04:17:24.564Z,25.23
2023-06-03T04:18:24.651Z,25.25
2023-06-03T04:19:24.619Z,25.23
2023-06-03T04:20:24.686Z,25.25
2023-06-03T04:21:24.727Z,25.22
2023-06-03T04:22:24.790Z,25.25
2023-06-03T04:23:24.924Z,25.25
2023-06-03T04:24:24.926Z,25.25
2023-06-03T04:25:24.990Z,25.26
2023-06-03T04:26:25.033Z,25.23
2023-06-03T04:27:25.109Z,25.25
2023-06-03T04:28:25.161Z,25.23
2023-06-03T04:29:25.201Z,25.25
2023-06-03T04:30:25.306Z,25.26
2023-06-03T04:31:25.363Z,25.22
2023-06-03T04:32:25.447Z,25.25
2023-06-03T04:33:25.516Z,25.25
2023-06-03T04:34:25.550Z,25.22
2023-06-03T04:35:25.644Z,25.25
2023-06-03T04:36:25.708Z,25.26
2023-06-03T04:37:25.779Z,25.23
2023-06-03T04:38:25.853Z,25.28
2023-06-03T04:39:25.915Z,25.28
2023-06-03T04:40:25.972Z,25.28
2023-06-03T04:41:26.003Z,25.28
2023-06-03T04:42:26.088Z,25.28
2023-06-03T04:43:26.142Z,25.26
2023-06-03T04:44:26.252Z,25.28
2023-06-03T04:45:26.316Z,25.29
2023-06-03T04:46:26.386Z,25.29
2023-06-03T04:47:26.419Z,25.29
2023-06-03T04:48:26.410Z,25.26
2023-06-03T04:49:26.465Z,25.29
2023-06-03T04:50:27.574Z,25.32
2023-06-03T04:51:26.516Z,25.30
2023-06-03T04:52:26.526Z,25.30
2023-06-03T04:53:26.536Z,25.28
2023-06-03T04:54:26.572Z,25.30
2023-06-03T04:55:26.645Z,25.30
2023-06-03T04:56:26.618Z,25.29
2023-06-03T04:57:26.655Z,25.29
2023-06-03T04:58:26.694Z,25.32
2023-06-03T04:59:26.712Z,25.32
2023-06-03T05:00:26.736Z,25.32
2023-06-03T05:01:26.798Z,25.29
2023-06-03T05:02:26.859Z,25.32
2023-06-03T05:03:26.912Z,25.32
2023-06-03T05:04:26.833Z,25.32
2023-06-03T05:05:26.867Z,25.30
2023-06-03T05:06:26.884Z,25.33
2023-06-03T05:07:26.912Z,25.34
2023-06-03T05:08:26.952Z,25.32
2023-06-03T05:09:26.947Z,25.33
2023-06-03T05:10:26.977Z,25.33
2023-06-03T05:11:27.014Z,25.30
2023-06-03T05:12:27.050Z,25.30
2023-06-03T05:13:27.068Z,25.33
2023-06-03T05:14:27.080Z,25.32
2023-06-03T05:15:27.106Z,25.33
2023-06-03T05:16:27.220Z,25.33
2023-06-03T05:17:27.287Z,25.33
2023-06-03T05:18:27.361Z,25.32
2023-06-03T05:19:27.444Z,25.32
2023-06-03T05:20:27.552Z,25.32
2023-06-03T05:21:27.617Z,25.33
2023-06-03T05:22:27.756Z,25.33
2023-06-03T05:23:27.844Z,25.34
2023-06-03T05:24:27.900Z,25.32
2023-06-03T05:25:27.968Z,25.33
2023-06-03T05:26:28.071Z,25.32
2023-06-03T05:27:28.175Z,25.32
2023-06-03T05:28:28.263Z,25.33
2023-06-03T05:29:28.373Z,25.32
2023-06-03T05:30:28.450Z,25.33
2023-06-03T05:31:28.657Z,25.33
2023-06-03T05:32:28.721Z,25.34
2023-06-03T05:33:28.760Z,25.32
2023-06-03T05:34:28.829Z,25.34
2023-06-03T05:35:28.927Z,25.33
2023-06-03T05:36:29.035Z,25.33
2023-06-03T05:37:29.137Z,25.34
2023-06-03T05:38:29.221Z,25.34
2023-06-03T05:39:29.309Z,25.33
2023-06-03T05:40:29.420Z,25.36
2023-06-03T05:41:29.524Z,25.37
2023-06-03T05:42:29.620Z,25.36
2023-06-03T05:43:29.724Z,25.34
2023-06-03T05:44:29.813Z,25.33
2023-06-03T05:45:29.909Z,25.37
2023-06-03T05:46:30.161Z,25.36
2023-06-03T05:47:30.129Z,25.36
2023-06-03T05:48:30.217Z,25.39
2023-06-03T05:49:30.285Z,25.39
2023-06-03T05:50:30.385Z,25.37
2023-06-03T05:51:30.499Z,25.37
2023-06-03T05:52:30.591Z,25.37
2023-06-03T05:53:30.661Z,25.36
2023-06-03T05:54:30.791Z,25.39
2023-06-03T05:55:30.866Z,25.36
2023-06-03T05:56:30.973Z,25.34
2023-06-03T05:57:31.062Z,25.37
2023-06-03T05:58:31.172Z,25.39
2023-06-03T05:59:31.232Z,25.39
2023-06-03T06:00:31.330Z,25.39
2023-06-03T06:01:31.402Z,25.40
2023-06-03T06:02:31.574Z,25.40
2023-06-03T06:03:31.825Z,25.44
2023-06-03T06:04:31.695Z,25.47
2023-06-03T06:05:31.750Z,25.46
2023-06-03T06:06:31.856Z,25.46
2023-06-03T06:07:31.934Z,25.46
2023-06-03T06:08:32.018Z,25.44
2023-06-03T06:09:32.097Z,25.47
2023-06-03T06:10:32.176Z,25.48
2023-06-03T06:11:32.267Z,25.48
2023-06-03T06:12:32.350Z,25.50
2023-06-03T06:13:32.366Z,25.50
2023-06-03T06:14:32.400Z,25.51
2023-06-03T06:15:32.425Z,25.51
2023-06-03T06:16:32.518Z,25.54
2023-06-03T06:17:32.534Z,25.51
2023-06-03T06:18:32.594Z,25.51
2023-06-03T06:19:32.555Z,25.54
2023-06-03T06:20:32.630Z,25.56
2023-06-03T06:21:32.641Z,25.57
2023-06-03T06:22:32.685Z,25.57
2023-06-03T06:23:32.890Z,25.57
2023-06-03T06:24:34.773Z,25.58
2023-06-03T06:25:32.914Z,25.61
2023-06-03T06:26:32.930Z,25.63
2023-06-03T06:27:32.965Z,25.61
2023-06-03T06:28:33.007Z,25.64
2023-06-03T06:29:33.036Z,25.64
2023-06-03T06:30:33.074Z,25.65
2023-06-03T06:31:33.149Z,25.68
2023-06-03T06:32:33.151Z,25.65
2023-06-03T06:33:33.141Z,25.67
2023-06-03T06:34:33.170Z,25.68
2023-06-03T06:35:33.169Z,25.71
2023-06-03T06:36:33.226Z,25.70
2023-06-03T06:37:33.225Z,25.71
2023-06-03T06:38:33.239Z,25.73
2023-06-03T06:39:33.264Z,25.73
2023-06-03T06:40:33.275Z,25.73
2023-06-03T06:41:33.296Z,25.75
2023-06-03T06:42:33.347Z,25.74
2023-06-03T06:43:33.360Z,25.77
2023-06-03T06:44:33.370Z,25.75
2023-06-03T06:45:33.411Z,25.77
2023-06-03T06:46:33.502Z,25.77
2023-06-03T06:47:33.452Z,25.77
2023-06-03T06:48:33.495Z,25.75
2023-06-03T06:49:33.449Z,25.80
2023-06-03T06:50:33.459Z,25.78
2023-06-03T06:51:33.468Z,25.81
2023-06-03T06:52:33.507Z,25.81
2023-06-03T06:53:33.503Z,25.80
2023-06-03T06:54:33.573Z,25.83
2023-06-03T06:55:33.523Z,25.83
2023-06-03T06:56:33.549Z,25.84
2023-06-03T06:57:33.546Z,25.84
2023-06-03T06:58:33.556Z,25.84
2023-06-03T06:59:33.588Z,25.87
2023-06-03T07:00:33.649Z,25.85
2023-06-03T07:01:33.746Z,25.85
2023-06-03T07:02:33.806Z,25.85
2023-06-03T07:03:33.915Z,25.87
2023-06-03T07:04:33.910Z,25.88
2023-06-03T07:05:33.969Z,25.88
2023-06-03T07:06:34.038Z,25.88
2023-06-03T07:07:34.119Z,25.88
2023-06-03T07:08:34.156Z,25.88
2023-06-03T07:09:34.236Z,25.92
2023-06-03T07:10:34.280Z,25.91
2023-06-03T07:11:34.335Z,25.92
2023-06-03T07:12:34.421Z,25.92
2023-06-03T07:13:34.452Z,25.94
2023-06-03T07:14:34.523Z,25.92
2023-06-03T07:15:34.566Z,25.94
2023-06-03T07:16:34.675Z,25.94
2023-06-03T07:17:34.718Z,25.94
2023-06-03T07:18:34.741Z,25.94
2023-06-03T07:19:34.802Z,25.98
2023-06-03T07:20:34.947Z,25.98
2023-06-03T07:21:34.903Z,25.98
2023-06-03T07:22:34.968Z,25.99
2023-06-03T07:23:35.073Z,26.01
2023-06-03T07:24:36.178Z,26.01
2023-06-03T07:25:35.114Z,26.02
2023-06-03T07:26:35.169Z,26.03
2023-06-03T07:27:35.229Z,26.03
2023-06-03T07:28:35.285Z,26.02
2023-06-03T07:29:35.335Z,26.03
2023-06-03T07:30:35.391Z,26.05
2023-06-03T07:31:35.467Z,26.06
2023-06-03T07:32:35.517Z,26.05
2023-06-03T07:33:35.535Z,26.05
2023-06-03T07:34:35.592Z,26.08
2023-06-03T07:35:35.639Z,26.08
2023-06-03T07:36:35.681Z,26.08
2023-06-03T07:37:35.744Z,26.09
2023-06-03T07:38:35.783Z,26.11
2023-06-03T07:39:35.844Z,26.12
2023-06-03T07:40:35.889Z,26.12
2023-06-03T07:41:35.935Z,26.11
2023-06-03T07:42:35.986Z,26.13
2023-06-03T07:43:36.065Z,26.15
2023-06-03T07:44:36.122Z,26.15
2023-06-03T07:45:36.135Z,26.18
2023-06-03T07:46:36.213Z,26.16
2023-06-03T07:47:36.390Z,26.15
2023-06-03T07:48:36.270Z,26.16
2023-06-03T07:49:36.333Z,26.16
2023-06-03T07:50:36.396Z,26.19
2023-06-03T07:51:36.417Z,26.16
2023-06-03T07:52:36.469Z,26.20
2023-06-03T07:53:36.585Z,26.19
2023-06-03T07:54:36.626Z,26.20
2023-06-03T07:55:36.627Z,26.20
2023-06-03T07:56:36.622Z,26.22
2023-06-03T07:57:36.634Z,26.23
2023-06-03T07:58:36.629Z,26.25
2023-06-03T07:59:36.640Z,26.25
2023-06-03T08:00:36.649Z,26.26
2023-06-03T08:01:36.673Z,26.28
2023-06-03T08:02:36.782Z,26.26
2023-06-03T08:03:36.694Z,26.28
2023-06-03T08:04:36.675Z,26.30
2023-06-03T08:05:36.688Z,26.28
2023-06-03T08:06:36.732Z,26.29
2023-06-03T08:07:36.703Z,26.30
2023-06-03T08:08:36.709Z,26.30
2023-06-03T08:09:36.722Z,26.30
2023-06-03T08:10:36.714Z,26.30
2023-06-03T08:11:36.745Z,26.33
2023-06-03T08:12:36.785Z,26.33
2023-06-03T08:13:36.817Z,26.33
2023-06-03T08:14:36.858Z,26.36
2023-06-03T08:15:36.893Z,26.32
2023-06-03T08:16:37.022Z,26.35
2023-06-03T08:17:37.012Z,26.38
2023-06-03T08:18:37.004Z,26.38
2023-06-03T08:19:37.032Z,26.38
2023-06-03T08:20:37.066Z,26.39
2023-06-03T08:21:37.099Z,26.40
2023-06-03T08:22:37.142Z,26.39
2023-06-03T08:23:37.201Z,26.40
2023-06-03T08:24:37.183Z,26.42
2023-06-03T08:25:37.216Z,26.43
2023-06-03T08:26:37.248Z,26.43
2023-06-03T08:27:37.295Z,26.42
2023-06-03T08:28:37.294Z,26.44
2023-06-03T08:29:37.331Z,26.47
2023-06-03T08:30:37.367Z,26.46
2023-06-03T08:31:37.379Z,26.44
2023-06-03T08:32:37.424Z,26.46
2023-06-03T08:33:37.436Z,26.49
2023-06-03T08:34:37.495Z,26.49
2023-06-03T08:35:37.482Z,26.50
2023-06-03T08:36:37.501Z,26.51
2023-06-03T08:37:37.529Z,26.53
2023-06-03T08:38:37.569Z,26.51
2023-06-03T08:39:37.584Z,26.51
2023-06-03T08:40:37.604Z,26.50
2023-06-03T08:41:37.601Z,26.51
2023-06-03T08:42:37.638Z,26.50
2023-06-03T08:43:37.648Z,26.51
2023-06-03T08:44:37.682Z,26.51
2023-06-03T08:45:37.743Z,26.51
2023-06-03T08:46:37.713Z,26.50
2023-06-03T08:47:37.760Z,26.51
2023-06-03T08:48:37.752Z,26.53
2023-06-03T08:49:37.798Z,26.56
2023-06-03T08:50:37.841Z,26.53
2023-06-03T08:51:37.856Z,26.56
2023-06-03T08:52:37.869Z,26.56
2023-06-03T08:53:37.880Z,26.57
2023-06-03T08:54:37.902Z,26.57
2023-06-03T08:55:37.924Z,26.56
2023-06-03T08:56:37.936Z,26.57
2023-06-03T08:57:37.969Z,26.58
2023-06-03T08:58:37.981Z,26.56
2023-06-03T08:59:37.975Z,26.58
2023-06-03T09:00:37.999Z,26.60
2023-06-03T09:01:38.000Z,26.61
2023-06-03T09:02:38.042Z,26.58
2023-06-03T09:03:38.081Z,26.61
2023-06-03T09:04:38.080Z,26.63
2023-06-03T09:05:38.062Z,26.66
2023-06-03T09:06:38.037Z,26.63
2023-06-03T09:07:38.059Z,26.66
2023-06-03T09:08:38.037Z,26.63
2023-06-03T09:09:38.043Z,26.64
2023-06-03T09:10:38.045Z,26.66
2023-06-03T09:11:38.045Z,26.66
2023-06-03T09:12:38.059Z,26.67
2023-06-03T09:13:38.053Z,26.67
2023-06-03T09:14:38.050Z,26.70
2023-06-03T09:15:38.051Z,26.70
2023-06-03T09:16:38.159Z,26.68
2023-06-03T09:17:38.067Z,26.73
2023-06-03T09:18:38.053Z,26.71
2023-06-03T09:19:38.089Z,26.73
2023-06-03T09:20:38.056Z,26.73
2023-06-03T09:21:38.046Z,26.74
2023-06-03T09:22:38.064Z,26.73
2023-06-03T09:23:38.090Z,26.76
2023-06-03T09:24:38.052Z,26.74
2023-06-03T09:25:38.067Z,26.78
2023-06-03T09:26:38.039Z,26.78
2023-06-03T09:27:38.085Z,26.77
2023-06-03T09:28:38.030Z,26.78
2023-06-03T09:29:38.052Z,26.80
2023-06-03T09:30:38.043Z,26.78
2023-06-03T09:31:38.112Z,26.80
2023-06-03T09:32:38.144Z,26.81
2023-06-03T09:33:38.051Z,26.81
2023-06-03T09:34:38.032Z,26.81
2023-06-03T09:35:38.071Z,26.84
2023-06-03T09:36:38.040Z,26.84
2023-06-03T09:37:38.051Z,26.81
2023-06-03T09:38:38.028Z,26.83
2023-06-03T09:39:38.044Z,26.84
2023-06-03T09:40:38.040Z,26.84
2023-06-03T09:41:38.029Z,26.87
2023-06-03T09:42:38.015Z,26.88
2023-06-03T09:43:38.015Z,26.87
2023-06-03T09:44:38.010Z,26.87
2023-06-03T09:45:38.022Z,26.88
2023-06-03T09:46:38.026Z,26.87
2023-06-03T09:47:38.037Z,26.88
2023-06-03T09:48:38.008Z,26.88
2023-06-03T09:49:49.947Z,26.91
2023-06-03T09:50:38.983Z,26.88
2023-06-03T09:51:37.988Z,26.90
2023-06-03T09:52:37.969Z,26.91
2023-06-03T09:53:37.988Z,26.90
2023-06-03T09:54:38.011Z,26.93
2023-06-03T09:55:37.985Z,26.90
2023-06-03T09:56:37.963Z,26.91
2023-06-03T09:57:37.963Z,26.91
2023-06-03T09:58:37.961Z,26.91
2023-06-03T09:59:37.953Z,26.91
2023-06-03T10:00:37.983Z,26.94
2023-06-03T10:01:38.009Z,26.93
2023-06-03T10:02:38.053Z,26.93
2023-06-03T10:03:37.946Z,26.90
2023-06-03T10:04:37.965Z,26.91
2023-06-03T10:05:37.935Z,26.91
2023-06-03T10:06:37.924Z,26.93
2023-06-03T10:07:37.938Z,26.93
2023-06-03T10:08:37.923Z,26.94
2023-06-03T10:09:38.020Z,26.94
2023-06-03T10:10:38.124Z,26.94
2023-06-03T10:11:38.241Z,26.95
2023-06-03T10:12:38.225Z,26.94
2023-06-03T10:13:38.272Z,26.94
2023-06-03T10:14:38.283Z,26.97
2023-06-03T10:15:38.327Z,26.95
2023-06-03T10:16:38.341Z,26.95
2023-06-03T10:17:38.389Z,26.94
2023-06-03T10:18:38.412Z,26.94
2023-06-03T10:19:38.389Z,26.95
2023-06-03T10:20:38.449Z,26.98
2023-06-03T10:21:38.461Z,26.97
2023-06-03T10:22:38.464Z,26.98
2023-06-03T10:23:38.493Z,26.98
2023-06-03T10:24:38.483Z,26.97
2023-06-03T10:25:38.502Z,26.98
2023-06-03T10:26:38.505Z,26.97
2023-06-03T10:27:38.526Z,26.99
2023-06-03T10:28:38.549Z,27.01
2023-06-03T10:29:38.531Z,27.01
2023-06-03T10:30:38.557Z,27.01
2023-06-03T10:31:38.555Z,27.04
2023-06-03T10:32:38.728Z,27.04
2023-06-03T10:33:38.652Z,27.04
2023-06-03T10:34:38.653Z,27.05
2023-06-03T10:35:38.700Z,27.06
2023-06-03T10:36:38.650Z,27.08
2023-06-03T10:37:38.657Z,27.05
2023-06-03T10:38:38.731Z,27.08
2023-06-03T10:39:38.740Z,27.06
2023-06-03T10:40:38.729Z,27.09
2023-06-03T10:41:38.734Z,27.11
2023-06-03T10:42:38.772Z,27.11
2023-06-03T10:43:38.766Z,27.11
2023-06-03T10:44:38.768Z,27.13
2023-06-03T10:45:38.786Z,27.13
2023-06-03T10:46:38.854Z,27.13
2023-06-03T10:47:38.827Z,27.12
2023-06-03T10:48:38.814Z,27.15
2023-06-03T10:49:38.848Z,27.13
2023-06-03T10:50:38.873Z,27.16
2023-06-03T10:51:38.889Z,27.15
2023-06-03T10:52:38.920Z,27.16
2023-06-03T10:53:38.945Z,27.18
2023-06-03T10:54:39.031Z,27.18
2023-06-03T10:55:39.062Z,27.16
2023-06-03T10:56:38.995Z,27.18
2023-06-03T10:57:39.031Z,27.19
2023-06-03T10:58:39.024Z,27.19
2023-06-03T10:59:39.084Z,27.21
2023-06-03T11:00:39.123Z,27.21
2023-06-03T11:01:39.183Z,27.22
2023-06-03T11:02:39.235Z,27.22
2023-06-03T11:03:39.306Z,27.24
2023-06-03T11:04:39.246Z,27.22
2023-06-03T11:05:39.266Z,27.24
2023-06-03T11:06:39.353Z,27.24
2023-06-03T11:07:39.392Z,27.25
2023-06-03T11:08:39.460Z,27.24
2023-06-03T11:09:39.557Z,27.26
2023-06-03T11:10:39.530Z,27.24
2023-06-03T11:11:39.568Z,27.25
2023-06-03T11:12:39.590Z,27.28
2023-06-03T11:13:39.657Z,27.25
2023-06-03T11:14:39.674Z,27.26
2023-06-03T11:15:39.738Z,27.28
2023-06-03T11:16:39.871Z,27.29
2023-06-03T11:17:39.846Z,27.28
2023-06-03T11:18:39.888Z,27.31
2023-06-03T11:19:39.929Z,27.32
2023-06-03T11:20:40.004Z,27.31
2023-06-03T11:21:40.047Z,27.31
2023-06-03T11:22:40.157Z,27.32
2023-06-03T11:23:40.238Z,27.33
2023-06-03T11:24:40.247Z,27.29
2023-06-03T11:25:40.286Z,27.31
2023-06-03T11:26:40.329Z,27.31
2023-06-03T11:27:40.376Z,27.31
2023-06-03T11:28:40.410Z,27.29
2023-06-03T11:29:40.446Z,27.29
2023-06-03T11:30:40.522Z,27.31
2023-06-03T11:31:40.608Z,27.29
2023-06-03T11:32:40.627Z,27.26
2023-06-03T11:33:40.682Z,27.29
2023-06-03T11:34:40.717Z,27.29
2023-06-03T11:35:40.720Z,27.26
2023-06-03T11:36:40.721Z,27.28
2023-06-03T11:37:40.720Z,27.28
2023-06-03T11:38:40.719Z,27.25
2023-06-03T11:39:40.714Z,27.26
2023-06-03T11:40:40.701Z,27.24
2023-06-03T11:41:40.721Z,27.25
2023-06-03T11:42:40.696Z,27.24
2023-06-03T11:43:40.712Z,27.22
2023-06-03T11:44:40.685Z,27.22
2023-06-03T11:45:40.709Z,27.19
2023-06-03T11:46:40.757Z,27.19
2023-06-03T11:47:40.840Z,27.19
2023-06-03T11:48:40.888Z,27.19
2023-06-03T11:49:40.908Z,27.21
2023-06-03T11:50:40.946Z,27.18
2023-06-03T11:51:40.989Z,27.16
2023-06-03T11:52:42.387Z,27.15
2023-06-03T11:53:41.094Z,27.16
2023-06-03T11:54:41.085Z,27.19
2023-06-03T11:55:41.107Z,27.19
2023-06-03T11:56:41.137Z,27.16
2023-06-03T11:57:41.161Z,27.16
2023-06-03T11:58:41.309Z,27.19
2023-06-03T11:59:41.245Z,27.18
2023-06-03T12:00:41.295Z,27.16
2023-06-03T12:01:41.300Z,27.18
2023-06-03T12:02:41.434Z,27.18
2023-06-03T12:03:41.420Z,27.18
2023-06-03T12:04:41.500Z,27.19
2023-06-03T12:05:41.525Z,27.22
2023-06-03T12:06:41.548Z,27.21
2023-06-03T12:07:41.578Z,27.25
2023-06-03T12:08:41.645Z,27.24
2023-06-03T12:09:41.686Z,27.24
2023-06-03T12:10:41.730Z,27.22
2023-06-03T12:11:41.782Z,27.26
2023-06-03T12:12:41.807Z,27.25
2023-06-03T12:13:41.833Z,27.26
2023-06-03T12:14:41.902Z,27.26
2023-06-03T12:15:41.976Z,27.26
2023-06-03T12:16:41.998Z,27.24
2023-06-03T12:17:42.072Z,27.26
2023-06-03T12:18:42.118Z,27.24
2023-06-03T12:19:42.150Z,27.25
2023-06-03T12:20:43.583Z,27.28
2023-06-03T12:21:42.224Z,27.26
2023-06-03T12:22:42.293Z,27.29
2023-06-03T12:23:42.392Z,27.28
2023-06-03T12:24:42.406Z,27.29
2023-06-03T12:25:42.464Z,27.29
2023-06-03T12:26:42.731Z,27.29
2023-06-03T12:27:42.562Z,27.31
2023-06-03T12:28:42.650Z,27.32
2023-06-03T12:29:42.702Z,27.32
2023-06-03T12:30:42.775Z,27.31
2023-06-03T12:31:42.882Z,27.29
2023-06-03T12:32:42.989Z,27.31
2023-06-03T12:33:42.958Z,27.29
2023-06-03T12:34:43.030Z,27.31
2023-06-03T12:35:43.082Z,27.31
2023-06-03T12:36:43.142Z,27.31
2023-06-03T12:37:43.206Z,27.35
2023-06-03T12:38:43.252Z,27.33
2023-06-03T12:39:43.293Z,27.33
2023-06-03T12:40:43.361Z,27.35
2023-06-03T12:41:43.445Z,27.35
2023-06-03T12:42:43.574Z,27.33
2023-06-03T12:43:43.594Z,27.36
2023-06-03T12:44:43.750Z,27.35
2023-06-03T12:45:43.789Z,27.38
2023-06-03T12:46:43.823Z,27.33
2023-06-03T12:47:43.990Z,27.33
2023-06-03T12:48:43.954Z,27.32
2023-06-03T12:49:44.014Z,27.32
2023-06-03T12:50:44.092Z,27.31
2023-06-03T12:51:44.150Z,27.32
2023-06-03T12:52:44.236Z,27.33